AFL1505 USTR-UUEE
Flight info
| Callsign | AFL1505 |
|---|---|
| Flight time | 2h 28m |
| Altitude | 36000 |
| Route | BEPAR1R BEPAR T448 BANAM T348 EKB M864 AGNOK T796 NATBI/K0852F380 T796 ORTIM L158 DIMGI DIMGI3F |
| Aircraft | A320/M-SDE2E3FGHIJ1RWY/LB1U1 |
Departure
| Time | 2026-04-26 09:07 |
|---|---|
| Airport | Roshchino International Airport (USTR) |
Arrival
| Time | 2026-04-26 11:35 |
|---|---|
| Airport | Sheremetyevo International Airport (UUEE) |
| Time | Latitude | Longitude | Altitude | Speed | Heading |
|---|---|---|---|---|---|
| 2026-04-26 08:02 | 57.18053 | 65.34851 | 341 ft | 0 kts | 45° |
| 2026-04-26 08:34 | 57.18043 | 65.34827 | 338 ft | 2 kts | 45° |
| 2026-04-26 08:35 | 57.18024 | 65.34798 | 340 ft | 4 kts | 19° |
| 2026-04-26 08:35 | 57.17999 | 65.34793 | 337 ft | 4 kts | 347° |
| 2026-04-26 08:35 | 57.17974 | 65.34809 | 338 ft | 4 kts | 329° |
| 2026-04-26 08:35 | 57.17951 | 65.34837 | 337 ft | 4 kts | 320° |
| 2026-04-26 08:36 | 57.17931 | 65.34871 | 336 ft | 4 kts | 314° |
| 2026-04-26 08:36 | 57.17924 | 65.34885 | 337 ft | 0 kts | 315° |
| 2026-04-26 08:39 | 57.17931 | 65.34871 | 337 ft | 5 kts | 315° |
| 2026-04-26 08:39 | 57.17960 | 65.34818 | 339 ft | 5 kts | 315° |
| 2026-04-26 08:39 | 57.17982 | 65.34776 | 337 ft | 4 kts | 315° |
| 2026-04-26 08:40 | 57.17997 | 65.34748 | 336 ft | 2 kts | 315° |
| 2026-04-26 08:40 | 57.18006 | 65.34732 | 339 ft | 1 kts | 314° |
| 2026-04-26 08:40 | 57.18021 | 65.34703 | 339 ft | 4 kts | 314° |
| 2026-04-26 08:40 | 57.18039 | 65.34671 | 339 ft | 3 kts | 314° |
| 2026-04-26 08:41 | 57.18049 | 65.34651 | 318 ft | 2 kts | 314° |
| 2026-04-26 08:41 | 57.18056 | 65.34638 | 344 ft | 3 kts | 314° |
| 2026-04-26 08:41 | 57.18085 | 65.34586 | 338 ft | 9 kts | 315° |
| 2026-04-26 08:41 | 57.18126 | 65.34510 | 336 ft | 8 kts | 315° |
| 2026-04-26 08:42 | 57.18164 | 65.34441 | 338 ft | 7 kts | 315° |
| 2026-04-26 08:42 | 57.18195 | 65.34384 | 338 ft | 6 kts | 315° |
| 2026-04-26 08:42 | 57.18219 | 65.34340 | 339 ft | 4 kts | 315° |
| 2026-04-26 08:42 | 57.18236 | 65.34308 | 339 ft | 3 kts | 315° |
| 2026-04-26 08:43 | 57.18247 | 65.34288 | 337 ft | 2 kts | 315° |
| 2026-04-26 08:43 | 57.18253 | 65.34276 | 340 ft | 1 kts | 315° |
| 2026-04-26 08:43 | 57.18255 | 65.34274 | 337 ft | 0 kts | 315° |
| 2026-04-26 08:43 | 57.18256 | 65.34272 | 337 ft | 2 kts | 315° |
| 2026-04-26 08:44 | 57.18278 | 65.34231 | 337 ft | 7 kts | 315° |
| 2026-04-26 08:44 | 57.18308 | 65.34175 | 339 ft | 5 kts | 315° |
| 2026-04-26 08:44 | 57.18330 | 65.34134 | 335 ft | 4 kts | 315° |
| 2026-04-26 08:44 | 57.18345 | 65.34107 | 338 ft | 2 kts | 315° |
| 2026-04-26 08:45 | 57.18354 | 65.34090 | 339 ft | 1 kts | 315° |
| 2026-04-26 08:45 | 57.18357 | 65.34084 | 337 ft | 0 kts | 315° |
| 2026-04-26 08:45 | 57.18369 | 65.34061 | 339 ft | 5 kts | 315° |
| 2026-04-26 08:46 | 57.18409 | 65.33987 | 335 ft | 11 kts | 315° |
| 2026-04-26 08:46 | 57.18447 | 65.33917 | 337 ft | 6 kts | 315° |
| 2026-04-26 08:46 | 57.18475 | 65.33865 | 337 ft | 5 kts | 315° |
| 2026-04-26 08:46 | 57.18496 | 65.33826 | 338 ft | 4 kts | 315° |
| 2026-04-26 08:47 | 57.18511 | 65.33799 | 338 ft | 2 kts | 315° |
| 2026-04-26 08:47 | 57.18527 | 65.33769 | 338 ft | 5 kts | 315° |
| 2026-04-26 08:47 | 57.18548 | 65.33729 | 337 ft | 4 kts | 315° |
| 2026-04-26 08:47 | 57.18562 | 65.33703 | 338 ft | 2 kts | 315° |
| 2026-04-26 08:48 | 57.18570 | 65.33688 | 339 ft | 1 kts | 315° |
| 2026-04-26 08:48 | 57.18573 | 65.33683 | 339 ft | 1 kts | 315° |
| 2026-04-26 08:48 | 57.18600 | 65.33633 | 339 ft | 7 kts | 315° |
| 2026-04-26 08:48 | 57.18618 | 65.33573 | 337 ft | 4 kts | 278° |
| 2026-04-26 08:49 | 57.18618 | 65.33530 | 340 ft | 3 kts | 271° |
| 2026-04-26 08:49 | 57.18619 | 65.33501 | 340 ft | 2 kts | 271° |
| 2026-04-26 08:49 | 57.18619 | 65.33485 | 340 ft | 1 kts | 271° |
| 2026-04-26 08:49 | 57.18619 | 65.33478 | 340 ft | 0 kts | 271° |
| 2026-04-26 08:55 | 57.18620 | 65.33425 | 340 ft | 8 kts | 271° |
| 2026-04-26 08:55 | 57.18616 | 65.33377 | 339 ft | 0 kts | 250° |
| 2026-04-26 08:55 | 57.18616 | 65.33376 | 339 ft | 0 kts | 250° |
| 2026-04-26 09:03 | 57.18593 | 65.33316 | 335 ft | 16 kts | 229° |
| 2026-04-26 09:04 | 57.18505 | 65.33141 | 332 ft | 20 kts | 227° |
| 2026-04-26 09:04 | 57.18475 | 65.32916 | 332 ft | 19 kts | 268° |
| 2026-04-26 09:04 | 57.18469 | 65.32652 | 329 ft | 22 kts | 269° |
| 2026-04-26 09:04 | 57.18465 | 65.32360 | 329 ft | 23 kts | 267° |
| 2026-04-26 09:05 | 57.18489 | 65.32155 | 329 ft | 16 kts | 312° |
| 2026-04-26 09:05 | 57.18570 | 65.32011 | 333 ft | 17 kts | 317° |
| 2026-04-26 09:05 | 57.18652 | 65.31881 | 333 ft | 14 kts | 317° |
| 2026-04-26 09:05 | 57.18707 | 65.31767 | 338 ft | 10 kts | 295° |
| 2026-04-26 09:06 | 57.18679 | 65.31667 | 349 ft | 9 kts | 228° |
| 2026-04-26 09:06 | 57.18562 | 65.31430 | 357 ft | 57 kts | 228° |
| 2026-04-26 09:06 | 57.18147 | 65.30583 | 371 ft | 118 kts | 227° |
| 2026-04-26 09:06 | 57.17502 | 65.29243 | 390 ft | 163 kts | 230° |
| 2026-04-26 09:07 | 57.16765 | 65.27691 | 1182 ft | 152 kts | 231° |
| 2026-04-26 09:07 | 57.16276 | 65.25987 | 1883 ft | 151 kts | 263° |
| 2026-04-26 09:07 | 57.16216 | 65.24008 | 2424 ft | 166 kts | 269° |
| 2026-04-26 09:07 | 57.16212 | 65.21695 | 2802 ft | 191 kts | 269° |
| 2026-04-26 09:08 | 57.16202 | 65.19093 | 3272 ft | 216 kts | 269° |
| 2026-04-26 09:08 | 57.16176 | 65.16189 | 3844 ft | 236 kts | 268° |
| 2026-04-26 09:08 | 57.16142 | 65.13488 | 4608 ft | 242 kts | 268° |
| 2026-04-26 09:08 | 57.16094 | 65.10364 | 5561 ft | 246 kts | 268° |
| 2026-04-26 09:09 | 57.16038 | 65.07192 | 6487 ft | 250 kts | 268° |
| 2026-04-26 09:09 | 57.15975 | 65.03973 | 7374 ft | 253 kts | 267° |
| 2026-04-26 09:09 | 57.15908 | 65.00759 | 8277 ft | 256 kts | 267° |
| 2026-04-26 09:09 | 57.15836 | 64.97458 | 9177 ft | 259 kts | 267° |
| 2026-04-26 09:10 | 57.15761 | 64.94114 | 10001 ft | 266 kts | 267° |
| 2026-04-26 09:10 | 57.15679 | 64.90566 | 10324 ft | 289 kts | 266° |
| 2026-04-26 09:10 | 57.15587 | 64.86724 | 10682 ft | 308 kts | 266° |
| 2026-04-26 09:10 | 57.15491 | 64.82732 | 11365 ft | 315 kts | 266° |
| 2026-04-26 09:11 | 57.15396 | 64.78677 | 12147 ft | 319 kts | 266° |
| 2026-04-26 09:11 | 57.15298 | 64.74558 | 12923 ft | 323 kts | 266° |
| 2026-04-26 09:11 | 57.15196 | 64.70405 | 13671 ft | 327 kts | 266° |
| 2026-04-26 09:11 | 57.15089 | 64.66204 | 14364 ft | 330 kts | 266° |
| 2026-04-26 09:12 | 57.14977 | 64.61951 | 15056 ft | 334 kts | 266° |
| 2026-04-26 09:12 | 57.14859 | 64.57668 | 15751 ft | 337 kts | 266° |
| 2026-04-26 09:12 | 57.14741 | 64.53334 | 16423 ft | 340 kts | 266° |
| 2026-04-26 09:12 | 57.14626 | 64.48963 | 17091 ft | 344 kts | 266° |
| 2026-04-26 09:13 | 57.14507 | 64.44550 | 17749 ft | 347 kts | 266° |
| 2026-04-26 09:13 | 57.14375 | 64.40095 | 18344 ft | 350 kts | 266° |
| 2026-04-26 09:13 | 57.14231 | 64.35606 | 18908 ft | 353 kts | 266° |
| 2026-04-26 09:13 | 57.14084 | 64.31079 | 19479 ft | 355 kts | 266° |
| 2026-04-26 09:14 | 57.13940 | 64.26570 | 20039 ft | 358 kts | 266° |
| 2026-04-26 09:14 | 57.13794 | 64.21987 | 20597 ft | 360 kts | 266° |
| 2026-04-26 09:14 | 57.13646 | 64.17371 | 21145 ft | 363 kts | 266° |
| 2026-04-26 09:14 | 57.13494 | 64.12715 | 21693 ft | 365 kts | 266° |
| 2026-04-26 09:15 | 57.13340 | 64.08040 | 22225 ft | 368 kts | 266° |
| 2026-04-26 09:15 | 57.13180 | 64.03326 | 22757 ft | 370 kts | 266° |
| 2026-04-26 09:15 | 57.13017 | 63.98578 | 23261 ft | 373 kts | 266° |
| 2026-04-26 09:15 | 57.12851 | 63.93800 | 23669 ft | 375 kts | 266° |
| 2026-04-26 09:16 | 57.12682 | 63.88986 | 24070 ft | 378 kts | 266° |
| 2026-04-26 09:16 | 57.12507 | 63.84142 | 24461 ft | 381 kts | 266° |
| 2026-04-26 09:16 | 57.12332 | 63.79260 | 24848 ft | 383 kts | 266° |
| 2026-04-26 09:16 | 57.12077 | 63.74368 | 25234 ft | 386 kts | 260° |
| 2026-04-26 09:17 | 57.11534 | 63.69522 | 25598 ft | 388 kts | 258° |
| 2026-04-26 09:17 | 57.10968 | 63.64650 | 25969 ft | 391 kts | 258° |
| 2026-04-26 09:17 | 57.10395 | 63.59754 | 26340 ft | 393 kts | 258° |
| 2026-04-26 09:17 | 57.09817 | 63.54819 | 26716 ft | 395 kts | 258° |
| 2026-04-26 09:18 | 57.09243 | 63.49929 | 27074 ft | 398 kts | 258° |
| 2026-04-26 09:18 | 57.08650 | 63.44875 | 27452 ft | 400 kts | 258° |
| 2026-04-26 09:18 | 57.08065 | 63.39922 | 27813 ft | 403 kts | 258° |
| 2026-04-26 09:18 | 57.07468 | 63.34883 | 28173 ft | 405 kts | 258° |
| 2026-04-26 09:19 | 57.06865 | 63.29813 | 28522 ft | 407 kts | 258° |
| 2026-04-26 09:19 | 57.06257 | 63.24717 | 28850 ft | 410 kts | 257° |
| 2026-04-26 09:19 | 57.05641 | 63.19593 | 29175 ft | 412 kts | 257° |
| 2026-04-26 09:19 | 57.05018 | 63.14440 | 29489 ft | 414 kts | 257° |
| 2026-04-26 09:20 | 57.04395 | 63.09264 | 29796 ft | 416 kts | 257° |
| 2026-04-26 09:20 | 57.03767 | 63.04053 | 30054 ft | 419 kts | 257° |
| 2026-04-26 09:20 | 57.03135 | 62.98828 | 30296 ft | 421 kts | 257° |
| 2026-04-26 09:20 | 57.02495 | 62.93566 | 30549 ft | 422 kts | 257° |
| 2026-04-26 09:21 | 57.01850 | 62.88308 | 30898 ft | 422 kts | 257° |
| 2026-04-26 09:21 | 57.01205 | 62.83069 | 31237 ft | 422 kts | 257° |
| 2026-04-26 09:21 | 57.00556 | 62.77820 | 31568 ft | 422 kts | 257° |
| 2026-04-26 09:21 | 56.99907 | 62.72579 | 31888 ft | 422 kts | 257° |
| 2026-04-26 09:22 | 56.99253 | 62.67333 | 32225 ft | 422 kts | 257° |
| 2026-04-26 09:22 | 56.98595 | 62.62095 | 32557 ft | 422 kts | 257° |
| 2026-04-26 09:22 | 56.97940 | 62.56858 | 32885 ft | 422 kts | 257° |
| 2026-04-26 09:22 | 56.97283 | 62.51616 | 33214 ft | 422 kts | 257° |
| 2026-04-26 09:23 | 56.96626 | 62.46382 | 33560 ft | 422 kts | 257° |
| 2026-04-26 09:23 | 56.95964 | 62.41156 | 33865 ft | 421 kts | 256° |
| 2026-04-26 09:23 | 56.95294 | 62.35923 | 34136 ft | 421 kts | 256° |
| 2026-04-26 09:23 | 56.94625 | 62.30697 | 34402 ft | 422 kts | 256° |
| 2026-04-26 09:24 | 56.93955 | 62.25462 | 34662 ft | 422 kts | 256° |
| 2026-04-26 09:24 | 56.93287 | 62.20248 | 34915 ft | 422 kts | 256° |
| 2026-04-26 09:24 | 56.92615 | 62.15017 | 35162 ft | 422 kts | 256° |
| 2026-04-26 09:24 | 56.91940 | 62.09783 | 35398 ft | 423 kts | 256° |
| 2026-04-26 09:25 | 56.91260 | 62.04548 | 35629 ft | 423 kts | 256° |
| 2026-04-26 09:25 | 56.90575 | 61.99304 | 35750 ft | 424 kts | 256° |
| 2026-04-26 09:25 | 56.89887 | 61.94060 | 35777 ft | 424 kts | 256° |
| 2026-04-26 09:26 | 56.88543 | 61.83829 | 35777 ft | 423 kts | 256° |
| 2026-04-26 09:26 | 56.87163 | 61.73376 | 35778 ft | 423 kts | 256° |
| 2026-04-26 09:27 | 56.85767 | 61.62931 | 35780 ft | 423 kts | 256° |
| 2026-04-26 09:27 | 56.84363 | 61.52511 | 35783 ft | 423 kts | 256° |
| 2026-04-26 09:28 | 56.82951 | 61.42091 | 35781 ft | 423 kts | 256° |
| 2026-04-26 09:28 | 56.82756 | 61.40646 | 35780 ft | 423 kts | 256° |
| 2026-04-26 09:29 | 56.81436 | 61.30941 | 35783 ft | 423 kts | 256° |
| 2026-04-26 09:29 | 56.80023 | 61.20604 | 35785 ft | 423 kts | 256° |
| 2026-04-26 09:30 | 56.78593 | 61.10214 | 35781 ft | 423 kts | 256° |
| 2026-04-26 09:30 | 56.77149 | 60.99814 | 35781 ft | 423 kts | 255° |
| 2026-04-26 09:31 | 56.75687 | 60.89416 | 35781 ft | 423 kts | 255° |
| 2026-04-26 09:31 | 56.74606 | 60.78884 | 35810 ft | 424 kts | 268° |
| 2026-04-26 09:32 | 56.75146 | 60.68284 | 35810 ft | 426 kts | 276° |
| 2026-04-26 09:32 | 56.75888 | 60.57731 | 35809 ft | 426 kts | 275° |
| 2026-04-26 09:33 | 56.76625 | 60.47024 | 35809 ft | 426 kts | 275° |
| 2026-04-26 09:33 | 56.77356 | 60.36316 | 35811 ft | 426 kts | 275° |
| 2026-04-26 09:34 | 56.78083 | 60.25580 | 35813 ft | 426 kts | 275° |
| 2026-04-26 09:34 | 56.78793 | 60.14848 | 35820 ft | 426 kts | 275° |
| 2026-04-26 09:35 | 56.79476 | 60.04107 | 35826 ft | 426 kts | 275° |
| 2026-04-26 09:35 | 56.80106 | 59.93547 | 35831 ft | 426 kts | 275° |
| 2026-04-26 09:36 | 56.80741 | 59.82790 | 35837 ft | 426 kts | 275° |
| 2026-04-26 09:36 | 56.81375 | 59.72036 | 35843 ft | 426 kts | 275° |
| 2026-04-26 09:37 | 56.82002 | 59.61296 | 35843 ft | 426 kts | 275° |
| 2026-04-26 09:37 | 56.82615 | 59.50541 | 35846 ft | 425 kts | 275° |
| 2026-04-26 09:38 | 56.83214 | 59.39867 | 35850 ft | 425 kts | 275° |
| 2026-04-26 09:38 | 56.83813 | 59.29053 | 35856 ft | 425 kts | 274° |
| 2026-04-26 09:39 | 56.84402 | 59.18299 | 35855 ft | 425 kts | 274° |
| 2026-04-26 09:39 | 56.84967 | 59.07613 | 35862 ft | 425 kts | 274° |
| 2026-04-26 09:40 | 56.85332 | 58.96832 | 35860 ft | 425 kts | 271° |
| 2026-04-26 09:40 | 56.85476 | 58.86042 | 35863 ft | 425 kts | 270° |
| 2026-04-26 09:41 | 56.85597 | 58.75269 | 35863 ft | 424 kts | 270° |
| 2026-04-26 09:41 | 56.85752 | 58.64493 | 35867 ft | 424 kts | 271° |
| 2026-04-26 09:42 | 56.85934 | 58.53722 | 35867 ft | 424 kts | 271° |
| 2026-04-26 09:42 | 56.86109 | 58.43010 | 35867 ft | 424 kts | 271° |
| 2026-04-26 09:43 | 56.86261 | 58.32252 | 35870 ft | 423 kts | 271° |
| 2026-04-26 09:43 | 56.86398 | 58.21497 | 35872 ft | 423 kts | 271° |
| 2026-04-26 09:44 | 56.86521 | 58.10746 | 35872 ft | 423 kts | 270° |
| 2026-04-26 09:44 | 56.86618 | 58.01942 | 35870 ft | 423 kts | 270° |
| 2026-04-26 09:45 | 56.86732 | 57.91196 | 35867 ft | 423 kts | 270° |
| 2026-04-26 09:45 | 56.86843 | 57.80447 | 35867 ft | 423 kts | 270° |
| 2026-04-26 09:46 | 56.86934 | 57.69698 | 35863 ft | 423 kts | 270° |
| 2026-04-26 09:46 | 56.87012 | 57.58946 | 35865 ft | 423 kts | 270° |
| 2026-04-26 09:47 | 56.87093 | 57.48202 | 35859 ft | 423 kts | 270° |
| 2026-04-26 09:47 | 56.87163 | 57.37463 | 35859 ft | 422 kts | 270° |
| 2026-04-26 09:48 | 56.87221 | 57.26730 | 35857 ft | 422 kts | 270° |
| 2026-04-26 09:48 | 56.87265 | 57.16008 | 35850 ft | 422 kts | 270° |
| 2026-04-26 09:49 | 56.87303 | 57.05292 | 35848 ft | 421 kts | 270° |
| 2026-04-26 09:49 | 56.87333 | 56.94599 | 35847 ft | 421 kts | 270° |
| 2026-04-26 09:50 | 56.87355 | 56.83902 | 35843 ft | 421 kts | 270° |
| 2026-04-26 09:50 | 56.87363 | 56.73218 | 35842 ft | 421 kts | 270° |
| 2026-04-26 09:51 | 56.87370 | 56.62594 | 35835 ft | 420 kts | 270° |
| 2026-04-26 09:51 | 56.87369 | 56.51838 | 35833 ft | 421 kts | 270° |
| 2026-04-26 09:52 | 56.87364 | 56.41136 | 35835 ft | 421 kts | 270° |
| 2026-04-26 09:52 | 56.87533 | 56.25173 | 35829 ft | 420 kts | 271° |
| 2026-04-26 09:53 | 56.87658 | 56.14492 | 35829 ft | 421 kts | 271° |
| 2026-04-26 09:53 | 56.87742 | 56.03796 | 35828 ft | 421 kts | 270° |
| 2026-04-26 09:54 | 56.87675 | 55.93094 | 35834 ft | 421 kts | 263° |
| 2026-04-26 09:54 | 56.86032 | 55.82855 | 35838 ft | 423 kts | 249° |
| 2026-04-26 09:55 | 56.83744 | 55.72956 | 35842 ft | 423 kts | 249° |
| 2026-04-26 09:55 | 56.81499 | 55.63197 | 35841 ft | 423 kts | 249° |
| 2026-04-26 09:56 | 56.79223 | 55.53313 | 35844 ft | 422 kts | 249° |
| 2026-04-26 09:56 | 56.76934 | 55.43457 | 35846 ft | 422 kts | 249° |
| 2026-04-26 09:57 | 56.74634 | 55.33611 | 35848 ft | 422 kts | 249° |
| 2026-04-26 09:57 | 56.72342 | 55.23850 | 35847 ft | 422 kts | 249° |
| 2026-04-26 09:58 | 56.70033 | 55.14037 | 35850 ft | 422 kts | 249° |
| 2026-04-26 09:58 | 56.67717 | 55.04230 | 35849 ft | 422 kts | 248° |
| 2026-04-26 09:59 | 56.65386 | 54.94449 | 35852 ft | 421 kts | 248° |
| 2026-04-26 09:59 | 56.63052 | 54.84687 | 35852 ft | 421 kts | 248° |
| 2026-04-26 10:00 | 56.60719 | 54.74948 | 35850 ft | 421 kts | 248° |
| 2026-04-26 10:00 | 56.58377 | 54.65205 | 35847 ft | 421 kts | 248° |
| 2026-04-26 10:01 | 56.56024 | 54.55480 | 35857 ft | 421 kts | 248° |
| 2026-04-26 10:01 | 56.53665 | 54.45833 | 35878 ft | 421 kts | 248° |
| 2026-04-26 10:02 | 56.51291 | 54.36129 | 35876 ft | 421 kts | 248° |
| 2026-04-26 10:02 | 56.48915 | 54.26431 | 35882 ft | 421 kts | 248° |
| 2026-04-26 10:03 | 56.46529 | 54.16745 | 35878 ft | 422 kts | 248° |
| 2026-04-26 10:03 | 56.44129 | 54.07108 | 35883 ft | 422 kts | 248° |
| 2026-04-26 10:04 | 56.41716 | 53.97452 | 35881 ft | 422 kts | 248° |
| 2026-04-26 10:04 | 56.39312 | 53.87793 | 35886 ft | 421 kts | 248° |
| 2026-04-26 10:05 | 56.36910 | 53.78153 | 35885 ft | 421 kts | 248° |
| 2026-04-26 10:05 | 56.34492 | 53.68529 | 35891 ft | 421 kts | 248° |
| 2026-04-26 10:06 | 56.32061 | 53.58921 | 35887 ft | 421 kts | 247° |
| 2026-04-26 10:06 | 56.29598 | 53.49353 | 35891 ft | 421 kts | 247° |
| 2026-04-26 10:07 | 56.27121 | 53.39797 | 35885 ft | 421 kts | 247° |
| 2026-04-26 10:07 | 56.24639 | 53.30251 | 35893 ft | 421 kts | 247° |
| 2026-04-26 10:08 | 56.22156 | 53.20724 | 35892 ft | 421 kts | 247° |
| 2026-04-26 10:08 | 56.19668 | 53.11210 | 35891 ft | 421 kts | 247° |
| 2026-04-26 10:09 | 56.17166 | 53.01709 | 35886 ft | 421 kts | 247° |
| 2026-04-26 10:09 | 56.14662 | 52.92222 | 35886 ft | 421 kts | 247° |
| 2026-04-26 10:10 | 56.12162 | 52.82769 | 35882 ft | 421 kts | 247° |
| 2026-04-26 10:10 | 56.09640 | 52.73282 | 35885 ft | 421 kts | 246° |
| 2026-04-26 10:11 | 56.07129 | 52.63897 | 35877 ft | 421 kts | 246° |
| 2026-04-26 10:11 | 56.04585 | 52.54384 | 35879 ft | 421 kts | 247° |
| 2026-04-26 10:12 | 56.02125 | 52.45119 | 35876 ft | 421 kts | 247° |
| 2026-04-26 10:12 | 55.99572 | 52.35573 | 35878 ft | 420 kts | 246° |
| 2026-04-26 10:13 | 55.97038 | 52.26161 | 35875 ft | 420 kts | 246° |
| 2026-04-26 10:13 | 55.94497 | 52.16764 | 35878 ft | 420 kts | 246° |
| 2026-04-26 10:14 | 55.91952 | 52.07382 | 35870 ft | 420 kts | 246° |
| 2026-04-26 10:14 | 55.89401 | 51.98012 | 35874 ft | 420 kts | 246° |
| 2026-04-26 10:15 | 55.86848 | 51.88665 | 35871 ft | 420 kts | 246° |
| 2026-04-26 10:15 | 55.84291 | 51.79324 | 35875 ft | 420 kts | 246° |
| 2026-04-26 10:16 | 55.81719 | 51.69995 | 35868 ft | 420 kts | 246° |
| 2026-04-26 10:16 | 55.79138 | 51.60691 | 35866 ft | 420 kts | 246° |
| 2026-04-26 10:17 | 55.76556 | 51.51394 | 35860 ft | 420 kts | 246° |
| 2026-04-26 10:17 | 55.73961 | 51.42107 | 35860 ft | 420 kts | 246° |
| 2026-04-26 10:18 | 55.71502 | 51.32724 | 35854 ft | 419 kts | 249° |
| 2026-04-26 10:18 | 55.69315 | 51.23155 | 35854 ft | 419 kts | 250° |
| 2026-04-26 10:19 | 55.67145 | 51.13579 | 35850 ft | 419 kts | 249° |
| 2026-04-26 10:19 | 55.64897 | 51.04039 | 35853 ft | 420 kts | 249° |
| 2026-04-26 10:20 | 55.63001 | 50.96133 | 35851 ft | 420 kts | 249° |
| 2026-04-26 10:20 | 55.60329 | 50.85039 | 35852 ft | 420 kts | 249° |
| 2026-04-26 10:21 | 55.58038 | 50.75535 | 35847 ft | 420 kts | 249° |
| 2026-04-26 10:21 | 55.55745 | 50.66047 | 35849 ft | 420 kts | 249° |
| 2026-04-26 10:22 | 55.53460 | 50.56632 | 35837 ft | 420 kts | 249° |
| 2026-04-26 10:22 | 55.51150 | 50.47162 | 35843 ft | 420 kts | 248° |
| 2026-04-26 10:23 | 55.48827 | 50.37697 | 35837 ft | 420 kts | 248° |
| 2026-04-26 10:23 | 55.46498 | 50.28242 | 35840 ft | 420 kts | 248° |
| 2026-04-26 10:24 | 55.44162 | 50.18794 | 35837 ft | 421 kts | 248° |
| 2026-04-26 10:24 | 55.41820 | 50.09357 | 35838 ft | 421 kts | 248° |
| 2026-04-26 10:25 | 55.39650 | 49.99921 | 35837 ft | 419 kts | 256° |
| 2026-04-26 10:25 | 55.39101 | 49.89795 | 35837 ft | 417 kts | 275° |
| 2026-04-26 10:26 | 55.39633 | 49.79627 | 35829 ft | 418 kts | 275° |
| 2026-04-26 10:26 | 55.40136 | 49.69434 | 35829 ft | 418 kts | 275° |
| 2026-04-26 10:27 | 55.40628 | 49.59227 | 35821 ft | 419 kts | 274° |
| 2026-04-26 10:27 | 55.41111 | 49.49000 | 35828 ft | 419 kts | 274° |
| 2026-04-26 10:28 | 55.41586 | 49.38763 | 35821 ft | 420 kts | 274° |
| 2026-04-26 10:28 | 55.42060 | 49.28540 | 35825 ft | 420 kts | 274° |
| 2026-04-26 10:29 | 55.42521 | 49.18291 | 35822 ft | 420 kts | 274° |
| 2026-04-26 10:29 | 55.42969 | 49.08032 | 35827 ft | 421 kts | 274° |
| 2026-04-26 10:30 | 55.43414 | 48.97755 | 35821 ft | 421 kts | 274° |
| 2026-04-26 10:30 | 55.43855 | 48.87475 | 35825 ft | 421 kts | 274° |
| 2026-04-26 10:31 | 55.44214 | 48.78924 | 35818 ft | 421 kts | 274° |
| 2026-04-26 10:31 | 55.44634 | 48.68620 | 35818 ft | 422 kts | 274° |
| 2026-04-26 10:32 | 55.45041 | 48.58319 | 35809 ft | 422 kts | 274° |
| 2026-04-26 10:32 | 55.46445 | 48.46661 | 35783 ft | 410 kts | 286° |
| 2026-04-26 10:33 | 55.47003 | 48.43481 | 35777 ft | 392 kts | 286° |
| 2026-04-26 10:33 | 55.47780 | 48.39038 | 35780 ft | 370 kts | 286° |
| 2026-04-26 10:33 | 55.49262 | 48.30514 | 35784 ft | 359 kts | 286° |
| 2026-04-26 10:34 | 55.50719 | 48.22076 | 35780 ft | 365 kts | 286° |
| 2026-04-26 10:34 | 55.52224 | 48.13299 | 35779 ft | 382 kts | 286° |
| 2026-04-26 10:35 | 55.53790 | 48.04124 | 35771 ft | 398 kts | 286° |
| 2026-04-26 10:35 | 55.55379 | 47.94746 | 35770 ft | 413 kts | 286° |
| 2026-04-26 10:36 | 55.57042 | 47.84918 | 35764 ft | 420 kts | 286° |
| 2026-04-26 10:36 | 55.58715 | 47.74991 | 35764 ft | 422 kts | 286° |
| 2026-04-26 10:37 | 55.60378 | 47.65091 | 35754 ft | 422 kts | 286° |
| 2026-04-26 10:37 | 55.62034 | 47.55145 | 35758 ft | 421 kts | 286° |
| 2026-04-26 10:38 | 55.63674 | 47.45185 | 35748 ft | 421 kts | 286° |
| 2026-04-26 10:38 | 55.65303 | 47.35230 | 35752 ft | 421 kts | 286° |
| 2026-04-26 10:39 | 55.66933 | 47.25264 | 35742 ft | 421 kts | 286° |
| 2026-04-26 10:39 | 55.68551 | 47.15299 | 35738 ft | 421 kts | 286° |
| 2026-04-26 10:40 | 55.70164 | 47.05334 | 35732 ft | 421 kts | 286° |
| 2026-04-26 10:40 | 55.71769 | 46.95347 | 35734 ft | 421 kts | 286° |
| 2026-04-26 10:41 | 55.73366 | 46.85361 | 35729 ft | 421 kts | 286° |
| 2026-04-26 10:41 | 55.74959 | 46.75368 | 35728 ft | 421 kts | 286° |
| 2026-04-26 10:42 | 55.76539 | 46.65369 | 35718 ft | 421 kts | 286° |
| 2026-04-26 10:42 | 55.78094 | 46.55407 | 35719 ft | 421 kts | 285° |
| 2026-04-26 10:43 | 55.79450 | 46.45301 | 35713 ft | 422 kts | 277° |
| 2026-04-26 10:43 | 55.79833 | 46.34895 | 35713 ft | 422 kts | 275° |
| 2026-04-26 10:44 | 55.80164 | 46.24467 | 35703 ft | 422 kts | 274° |
| 2026-04-26 10:44 | 55.80486 | 46.14055 | 35708 ft | 422 kts | 275° |
| 2026-04-26 10:45 | 55.80808 | 46.03634 | 35696 ft | 421 kts | 275° |
| 2026-04-26 10:45 | 55.81121 | 45.93224 | 35692 ft | 421 kts | 274° |
| 2026-04-26 10:46 | 55.81428 | 45.82819 | 35681 ft | 421 kts | 274° |
| 2026-04-26 10:46 | 55.81717 | 45.72695 | 35680 ft | 421 kts | 274° |
| 2026-04-26 10:47 | 55.82005 | 45.62283 | 35671 ft | 422 kts | 274° |
| 2026-04-26 10:47 | 55.82284 | 45.51875 | 35675 ft | 422 kts | 274° |
| 2026-04-26 10:48 | 55.82550 | 45.41444 | 35662 ft | 422 kts | 274° |
| 2026-04-26 10:48 | 55.82806 | 45.31124 | 35669 ft | 422 kts | 274° |
| 2026-04-26 10:49 | 55.83063 | 45.20679 | 35663 ft | 423 kts | 274° |
| 2026-04-26 10:49 | 55.83303 | 45.10226 | 35661 ft | 423 kts | 274° |
| 2026-04-26 10:50 | 55.83499 | 45.01467 | 35657 ft | 423 kts | 274° |
| 2026-04-26 10:50 | 55.83765 | 44.89569 | 35653 ft | 423 kts | 274° |
| 2026-04-26 10:51 | 55.84096 | 44.74078 | 35643 ft | 423 kts | 274° |
| 2026-04-26 10:52 | 55.84307 | 44.63612 | 35634 ft | 423 kts | 274° |
| 2026-04-26 10:52 | 55.84507 | 44.53235 | 35633 ft | 423 kts | 274° |
| 2026-04-26 10:53 | 55.84706 | 44.42777 | 35629 ft | 423 kts | 274° |
| 2026-04-26 10:53 | 55.84889 | 44.32317 | 35622 ft | 423 kts | 274° |
| 2026-04-26 10:54 | 55.85148 | 44.16628 | 35616 ft | 423 kts | 274° |
| 2026-04-26 10:54 | 55.85307 | 44.06175 | 35618 ft | 423 kts | 274° |
| 2026-04-26 10:55 | 55.85464 | 43.95722 | 35610 ft | 422 kts | 274° |
| 2026-04-26 10:55 | 55.85617 | 43.85274 | 35607 ft | 422 kts | 274° |
| 2026-04-26 10:56 | 55.85755 | 43.74831 | 35597 ft | 422 kts | 274° |
| 2026-04-26 10:56 | 55.85875 | 43.64560 | 35595 ft | 422 kts | 274° |
| 2026-04-26 10:57 | 55.85986 | 43.54186 | 35590 ft | 422 kts | 273° |
| 2026-04-26 10:57 | 55.86095 | 43.43756 | 35585 ft | 421 kts | 274° |
| 2026-04-26 10:58 | 55.86206 | 43.33336 | 35575 ft | 421 kts | 274° |
| 2026-04-26 10:58 | 55.86310 | 43.22912 | 35574 ft | 421 kts | 274° |
| 2026-04-26 10:59 | 55.86400 | 43.12496 | 35566 ft | 421 kts | 273° |
| 2026-04-26 10:59 | 55.86478 | 43.02094 | 35565 ft | 420 kts | 273° |
| 2026-04-26 11:00 | 55.86552 | 42.91693 | 35561 ft | 420 kts | 273° |
| 2026-04-26 11:00 | 55.86619 | 42.81303 | 35555 ft | 419 kts | 273° |
| 2026-04-26 11:01 | 55.86677 | 42.70928 | 35548 ft | 419 kts | 273° |
| 2026-04-26 11:01 | 55.86728 | 42.60560 | 35550 ft | 419 kts | 273° |
| 2026-04-26 11:02 | 55.86759 | 42.50198 | 35543 ft | 419 kts | 273° |
| 2026-04-26 11:02 | 55.86782 | 42.39905 | 35540 ft | 418 kts | 272° |
| 2026-04-26 11:03 | 55.86803 | 42.29490 | 35534 ft | 418 kts | 272° |
| 2026-04-26 11:03 | 55.86814 | 42.19218 | 35527 ft | 417 kts | 272° |
| 2026-04-26 11:04 | 55.86822 | 42.08886 | 35529 ft | 417 kts | 272° |
| 2026-04-26 11:04 | 55.86822 | 41.98575 | 35524 ft | 416 kts | 272° |
| 2026-04-26 11:05 | 55.86802 | 41.88270 | 35515 ft | 416 kts | 271° |
| 2026-04-26 11:05 | 55.86769 | 41.77979 | 35518 ft | 416 kts | 271° |
| 2026-04-26 11:06 | 55.86605 | 41.69349 | 35520 ft | 416 kts | 269° |
| 2026-04-26 11:06 | 55.86199 | 41.57402 | 35518 ft | 416 kts | 268° |
| 2026-04-26 11:07 | 55.85836 | 41.47133 | 35519 ft | 415 kts | 268° |
| 2026-04-26 11:07 | 55.85507 | 41.36874 | 35515 ft | 415 kts | 268° |
| 2026-04-26 11:08 | 55.85183 | 41.26616 | 35511 ft | 415 kts | 268° |
| 2026-04-26 11:08 | 55.84845 | 41.16359 | 35512 ft | 415 kts | 268° |
| 2026-04-26 11:09 | 55.84500 | 41.06115 | 35509 ft | 414 kts | 268° |
| 2026-04-26 11:09 | 55.84148 | 40.95886 | 35502 ft | 414 kts | 268° |
| 2026-04-26 11:10 | 55.83781 | 40.85734 | 35508 ft | 414 kts | 267° |
| 2026-04-26 11:10 | 55.83422 | 40.75899 | 35505 ft | 414 kts | 267° |
| 2026-04-26 11:11 | 55.83044 | 40.65817 | 35503 ft | 414 kts | 267° |
| 2026-04-26 11:11 | 55.82660 | 40.55608 | 35172 ft | 415 kts | 267° |
| 2026-04-26 11:12 | 55.82454 | 40.50428 | 34134 ft | 424 kts | 266° |
| 2026-04-26 11:12 | 55.82239 | 40.45202 | 33443 ft | 423 kts | 266° |
| 2026-04-26 11:12 | 55.82020 | 40.40061 | 32930 ft | 411 kts | 266° |
| 2026-04-26 11:12 | 55.81801 | 40.35004 | 31347 ft | 413 kts | 266° |
| 2026-04-26 11:13 | 55.81584 | 40.29955 | 30525 ft | 401 kts | 266° |
| 2026-04-26 11:13 | 55.81379 | 40.25166 | 30409 ft | 381 kts | 266° |
| 2026-04-26 11:13 | 55.81181 | 40.20508 | 29962 ft | 375 kts | 266° |
| 2026-04-26 11:13 | 55.80986 | 40.15907 | 29412 ft | 371 kts | 266° |
| 2026-04-26 11:14 | 55.80794 | 40.11350 | 28860 ft | 367 kts | 266° |
| 2026-04-26 11:14 | 55.80604 | 40.06867 | 28351 ft | 361 kts | 266° |
| 2026-04-26 11:14 | 55.80411 | 40.02446 | 27859 ft | 356 kts | 266° |
| 2026-04-26 11:14 | 55.80282 | 39.99556 | 27536 ft | 353 kts | 266° |
| 2026-04-26 11:15 | 55.80018 | 39.93786 | 26882 ft | 347 kts | 266° |
| 2026-04-26 11:15 | 55.79820 | 39.89539 | 26397 ft | 343 kts | 266° |
| 2026-04-26 11:15 | 55.79627 | 39.85341 | 25932 ft | 339 kts | 266° |
| 2026-04-26 11:15 | 55.79437 | 39.81185 | 25472 ft | 336 kts | 266° |
| 2026-04-26 11:16 | 55.79214 | 39.77069 | 25258 ft | 340 kts | 265° |
| 2026-04-26 11:16 | 55.78945 | 39.72819 | 25062 ft | 350 kts | 264° |
| 2026-04-26 11:16 | 55.78651 | 39.68516 | 24857 ft | 352 kts | 264° |
| 2026-04-26 11:16 | 55.78347 | 39.64205 | 24643 ft | 352 kts | 264° |
| 2026-04-26 11:17 | 55.78049 | 39.59953 | 24439 ft | 351 kts | 264° |
| 2026-04-26 11:17 | 55.77751 | 39.55654 | 24226 ft | 350 kts | 264° |
| 2026-04-26 11:17 | 55.77456 | 39.51369 | 24021 ft | 350 kts | 264° |
| 2026-04-26 11:17 | 55.77160 | 39.47084 | 23807 ft | 349 kts | 264° |
| 2026-04-26 11:18 | 55.76868 | 39.42816 | 23597 ft | 348 kts | 264° |
| 2026-04-26 11:18 | 55.76578 | 39.38554 | 23391 ft | 347 kts | 264° |
| 2026-04-26 11:18 | 55.76287 | 39.34301 | 23215 ft | 347 kts | 264° |
| 2026-04-26 11:18 | 55.75994 | 39.30057 | 23030 ft | 346 kts | 264° |
| 2026-04-26 11:19 | 55.75697 | 39.25814 | 22833 ft | 345 kts | 264° |
| 2026-04-26 11:19 | 55.75400 | 39.21594 | 22650 ft | 345 kts | 263° |
| 2026-04-26 11:19 | 55.75099 | 39.17374 | 22463 ft | 344 kts | 263° |
| 2026-04-26 11:19 | 55.74796 | 39.13168 | 22290 ft | 343 kts | 263° |
| 2026-04-26 11:20 | 55.74492 | 39.08975 | 22111 ft | 342 kts | 263° |
| 2026-04-26 11:20 | 55.74287 | 39.06145 | 21994 ft | 342 kts | 263° |
| 2026-04-26 11:20 | 55.73886 | 39.00618 | 21754 ft | 341 kts | 263° |
| 2026-04-26 11:20 | 55.73584 | 38.96454 | 21580 ft | 340 kts | 263° |
| 2026-04-26 11:21 | 55.73417 | 38.92345 | 21393 ft | 339 kts | 271° |
| 2026-04-26 11:21 | 55.73566 | 38.88422 | 20694 ft | 343 kts | 274° |
| 2026-04-26 11:21 | 55.73775 | 38.84233 | 20284 ft | 338 kts | 275° |
| 2026-04-26 11:21 | 55.73988 | 38.80104 | 19746 ft | 333 kts | 275° |
| 2026-04-26 11:22 | 55.74199 | 38.76034 | 18881 ft | 330 kts | 275° |
| 2026-04-26 11:22 | 55.74336 | 38.73349 | 18324 ft | 328 kts | 275° |
| 2026-04-26 11:22 | 55.74536 | 38.69345 | 17590 ft | 323 kts | 275° |
| 2026-04-26 11:22 | 55.74730 | 38.65387 | 16920 ft | 323 kts | 274° |
| 2026-04-26 11:23 | 55.74957 | 38.61401 | 16316 ft | 325 kts | 279° |
| 2026-04-26 11:23 | 55.75503 | 38.57532 | 15763 ft | 325 kts | 288° |
| 2026-04-26 11:23 | 55.76432 | 38.53902 | 15148 ft | 319 kts | 298° |
| 2026-04-26 11:23 | 55.77660 | 38.50633 | 14391 ft | 316 kts | 303° |
| 2026-04-26 11:24 | 55.78927 | 38.47476 | 13823 ft | 309 kts | 303° |
| 2026-04-26 11:24 | 55.80135 | 38.44441 | 13527 ft | 293 kts | 303° |
| 2026-04-26 11:24 | 55.81300 | 38.41508 | 13287 ft | 289 kts | 303° |
| 2026-04-26 11:24 | 55.82451 | 38.38597 | 13018 ft | 287 kts | 303° |
| 2026-04-26 11:25 | 55.83621 | 38.35717 | 12746 ft | 288 kts | 304° |
| 2026-04-26 11:25 | 55.84832 | 38.32897 | 12476 ft | 286 kts | 306° |
| 2026-04-26 11:25 | 55.86059 | 38.30102 | 12022 ft | 288 kts | 306° |
| 2026-04-26 11:25 | 55.87294 | 38.27301 | 11653 ft | 286 kts | 306° |
| 2026-04-26 11:26 | 55.88528 | 38.24494 | 11084 ft | 285 kts | 306° |
| 2026-04-26 11:26 | 55.89723 | 38.21763 | 10418 ft | 282 kts | 306° |
| 2026-04-26 11:26 | 55.90916 | 38.19025 | 9833 ft | 277 kts | 306° |
| 2026-04-26 11:26 | 55.92086 | 38.16333 | 9639 ft | 275 kts | 306° |
| 2026-04-26 11:27 | 55.93255 | 38.13624 | 9311 ft | 275 kts | 305° |
| 2026-04-26 11:27 | 55.94411 | 38.10934 | 8752 ft | 272 kts | 305° |
| 2026-04-26 11:27 | 55.95557 | 38.08263 | 8219 ft | 270 kts | 305° |
| 2026-04-26 11:27 | 55.96694 | 38.05612 | 7697 ft | 268 kts | 305° |
| 2026-04-26 11:28 | 55.97828 | 38.02970 | 7177 ft | 267 kts | 306° |
| 2026-04-26 11:28 | 55.98951 | 38.00350 | 6668 ft | 265 kts | 304° |
| 2026-04-26 11:28 | 55.99928 | 37.97557 | 6157 ft | 266 kts | 295° |
| 2026-04-26 11:28 | 56.00630 | 37.94492 | 5728 ft | 264 kts | 286° |
| 2026-04-26 11:29 | 56.01043 | 37.91299 | 5297 ft | 262 kts | 279° |
| 2026-04-26 11:29 | 56.01368 | 37.88115 | 4898 ft | 260 kts | 279° |
| 2026-04-26 11:29 | 56.01699 | 37.84964 | 4502 ft | 260 kts | 280° |
| 2026-04-26 11:29 | 56.02037 | 37.81797 | 3975 ft | 255 kts | 280° |
| 2026-04-26 11:30 | 56.02294 | 37.78738 | 3640 ft | 240 kts | 272° |
| 2026-04-26 11:30 | 56.02295 | 37.76831 | 3550 ft | 225 kts | 266° |
| 2026-04-26 11:30 | 56.01948 | 37.73303 | 3415 ft | 213 kts | 253° |
| 2026-04-26 11:30 | 56.01502 | 37.70794 | 3315 ft | 211 kts | 254° |
| 2026-04-26 11:31 | 56.01105 | 37.68319 | 3236 ft | 209 kts | 255° |
| 2026-04-26 11:31 | 56.00743 | 37.65891 | 3017 ft | 194 kts | 256° |
| 2026-04-26 11:31 | 56.00403 | 37.63582 | 2771 ft | 187 kts | 256° |
| 2026-04-26 11:31 | 56.00090 | 37.61447 | 2544 ft | 173 kts | 256° |
| 2026-04-26 11:32 | 55.99794 | 37.59441 | 2317 ft | 160 kts | 257° |
| 2026-04-26 11:32 | 55.99520 | 37.57580 | 2093 ft | 149 kts | 257° |
| 2026-04-26 11:32 | 55.99264 | 37.55840 | 1884 ft | 141 kts | 257° |
| 2026-04-26 11:32 | 55.99020 | 37.54187 | 1709 ft | 134 kts | 257° |
| 2026-04-26 11:33 | 55.98785 | 37.52596 | 1524 ft | 132 kts | 257° |
| 2026-04-26 11:33 | 55.98550 | 37.51019 | 1375 ft | 130 kts | 257° |
| 2026-04-26 11:33 | 55.98331 | 37.49512 | 1230 ft | 130 kts | 257° |
| 2026-04-26 11:33 | 55.98098 | 37.47932 | 1064 ft | 130 kts | 256° |
| 2026-04-26 11:34 | 55.97862 | 37.46376 | 889 ft | 130 kts | 256° |
| 2026-04-26 11:34 | 55.97638 | 37.44818 | 701 ft | 130 kts | 256° |
| 2026-04-26 11:34 | 55.97421 | 37.43332 | 640 ft | 113 kts | 256° |
| 2026-04-26 11:34 | 55.97262 | 37.42261 | 639 ft | 64 kts | 253° |
| 2026-04-26 11:35 | 55.97166 | 37.41646 | 640 ft | 44 kts | 255° |
| 2026-04-26 11:35 | 55.97155 | 37.41361 | 643 ft | 14 kts | 322° |
| 2026-04-26 11:35 | 55.97251 | 37.41304 | 643 ft | 14 kts | 345° |
| 2026-04-26 11:35 | 55.97348 | 37.41258 | 640 ft | 15 kts | 345° |
| 2026-04-26 11:36 | 55.97455 | 37.41208 | 639 ft | 17 kts | 345° |
| 2026-04-26 11:36 | 55.97526 | 37.41200 | 641 ft | 7 kts | 36° |
| 2026-04-26 11:36 | 55.97547 | 37.41268 | 642 ft | 6 kts | 74° |
| 2026-04-26 11:36 | 55.97558 | 37.41340 | 640 ft | 8 kts | 74° |
| 2026-04-26 11:37 | 55.97585 | 37.41518 | 639 ft | 18 kts | 76° |
| 2026-04-26 11:37 | 55.97611 | 37.41692 | 642 ft | 11 kts | 75° |
| 2026-04-26 11:37 | 55.97629 | 37.41819 | 639 ft | 10 kts | 75° |
| 2026-04-26 11:37 | 55.97646 | 37.41934 | 639 ft | 9 kts | 75° |
| 2026-04-26 11:38 | 55.97662 | 37.42036 | 647 ft | 8 kts | 74° |
| 2026-04-26 11:38 | 55.97687 | 37.42116 | 647 ft | 7 kts | 35° |
| 2026-04-26 11:38 | 55.97726 | 37.42120 | 639 ft | 6 kts | 344° |
| 2026-04-26 11:38 | 55.97760 | 37.42103 | 643 ft | 5 kts | 345° |
| 2026-04-26 11:39 | 55.97805 | 37.42082 | 639 ft | 8 kts | 345° |
| 2026-04-26 11:39 | 55.97827 | 37.42051 | 639 ft | 4 kts | 297° |
| 2026-04-26 11:39 | 55.97835 | 37.41978 | 647 ft | 7 kts | 282° |
| 2026-04-26 11:39 | 55.97837 | 37.41958 | 643 ft | 1 kts | 280° |
| 2026-04-26 11:40 | 55.97838 | 37.41946 | 645 ft | 2 kts | 280° |
| 2026-04-26 11:40 | 55.97841 | 37.41919 | 639 ft | 1 kts | 279° |
| 2026-04-26 11:40 | 55.97841 | 37.41918 | 639 ft | 0 kts | 279° |